Time;durP1;ratioP1;P1;durP2;ratioP2;P2;SDS_P1;SDS_P2;PMS_P1;PMS_P2;Temp;Humidity;BMP_temperature;BMP_pressure;BME280_temperature;BME280_humidity;BME280_pressure;Samples;Min_cycle;Max_cycle;Signal;HPM_P1;HPM_P2
2022/01/29 00:00:33;;;;;;;0.25;0.10;;;0.40;52.20;;;;;;20831465;28;20037;-49
2022/01/29 00:10:36;;;;;;;0.40;0.20;;;-0.10;54.20;;;;;;20810860;28;20110;-48
2022/01/29 00:20:38;;;;;;;0.10;0.10;;;-0.60;55.20;;;;;;20828899;28;20045;-49
2022/01/29 00:30:43;;;;;;;0.15;0.10;;;-0.80;56.00;;;;;;20811531;28;20042;-49
2022/01/29 00:40:46;;;;;;;0.40;0.10;;;-1.00;58.90;;;;;;20827168;28;20037;-48
2022/01/29 00:50:49;;;;;;;0.95;0.20;;;-1.10;58.70;;;;;;20826701;28;20392;-48
2022/01/29 01:00:51;;;;;;;0.50;0.10;;;-1.10;56.60;;;;;;20825837;28;20083;-49
2022/01/29 01:10:54;;;;;;;0.55;0.20;;;-0.90;56.10;;;;;;20808268;28;20074;-50
2022/01/29 01:20:57;;;;;;;0.30;0.10;;;-0.90;56.40;;;;;;20877887;28;20057;-49
2022/01/29 01:31:00;;;;;;;1.30;0.10;;;-1.10;58.30;;;;;;20889321;28;20048;-48
2022/01/29 01:41:07;;;;;;;0.38;0.10;;;-1.20;58.00;;;;;;20905126;28;20911;-48
2022/01/29 01:51:10;;;;;;;0.55;0.22;;;-1.00;57.60;;;;;;20904142;28;20036;-48
2022/01/29 02:01:13;;;;;;;0.10;0.00;;;-1.40;60.70;;;;;;20903556;28;20097;-49
2022/01/29 02:11:16;;;;;;;0.40;0.10;;;-1.60;59.80;;;;;;20885988;28;20396;-49
2022/01/29 02:21:20;;;;;;;1.27;0.20;;;-1.60;60.40;;;;;;20901917;28;20190;-48
2022/01/29 02:31:23;;;;;;;1.10;0.20;;;-1.60;60.70;;;;;;20884914;28;20041;-48
2022/01/29 02:41:25;;;;;;;0.52;0.10;;;-1.50;60.10;;;;;;20900014;28;20448;-50
2022/01/29 02:51:27;;;;;;;1.50;0.20;;;-1.60;61.20;;;;;;20884024;28;20037;-48
2022/01/29 03:01:30;;;;;;;0.88;0.25;;;-1.80;60.70;;;;;;20900359;28;20041;-48
2022/01/29 03:11:33;;;;;;;0.88;0.40;;;-2.30;64.80;;;;;;20882977;28;20072;-48
2022/01/29 03:21:36;;;;;;;1.02;0.40;;;-2.50;65.40;;;;;;20900614;28;20060;-51
2022/01/29 03:31:38;;;;;;;0.63;0.30;;;-2.70;66.40;;;;;;20965156;28;20056;-48
2022/01/29 03:41:41;;;;;;;0.90;0.30;;;-2.90;67.20;;;;;;20981456;28;20165;-47
2022/01/29 03:51:43;;;;;;;0.65;0.10;;;-2.90;67.80;;;;;;20965024;28;20480;-48
2022/01/29 04:01:46;;;;;;;0.70;0.20;;;-2.80;67.30;;;;;;20979333;28;20044;-48
2022/01/29 04:11:49;;;;;;;0.63;0.20;;;-2.70;67.30;;;;;;20996244;28;20040;-51
2022/01/29 04:21:52;;;;;;;2.60;0.52;;;-2.70;69.10;;;;;;20911071;28;20091;-48
2022/01/29 04:41:59;;;;;;;1.90;0.50;;;-2.60;68.00;;;;;;20926763;28;20041;-48
2022/01/29 04:52:01;;;;;;;1.73;0.68;;;-2.80;67.80;;;;;;20908991;28;20365;-50
2022/01/29 05:02:04;;;;;;;1.27;0.52;;;-3.00;70.40;;;;;;20891555;28;20041;-48
2022/01/29 05:12:07;;;;;;;1.05;0.55;;;-3.00;69.00;;;;;;20891019;28;20036;-49
2022/01/29 05:32:41;;;;;;;0.65;0.20;;;-3.10;71.30;;;;;;20732839;28;20479;-53
2022/01/29 05:42:44;;;;;;;0.68;0.15;;;-3.10;71.90;;;;;;20651109;28;20046;-48
2022/01/29 05:52:46;;;;;;;1.20;0.10;;;-3.10;73.60;;;;;;20634923;28;20046;-49
2022/01/29 06:03:05;;;;;;;0.38;0.10;;;-3.00;72.90;;;;;;20715337;28;20415;-48
2022/01/29 06:13:14;;;;;;;0.30;0.10;;;-2.90;72.30;;;;;;20931013;28;20438;-51
2022/01/29 06:23:21;;;;;;;0.10;0.05;;;-2.80;71.30;;;;;;20968092;28;20491;-49
2022/01/29 06:33:23;;;;;;;0.98;0.10;;;-2.80;71.90;;;;;;20984516;28;20518;-52
2022/01/29 06:43:28;;;;;;;0.82;0.20;;;-2.80;71.60;;;;;;20966887;28;20080;-50
2022/01/29 06:53:30;;;;;;;1.30;0.30;;;-2.70;72.60;;;;;;20983849;28;20093;-49
2022/01/29 07:03:33;;;;;;;1.30;0.30;;;-2.70;71.90;;;;;;20967607;28;20040;-48
2022/01/29 07:13:36;;;;;;;0.55;0.20;;;-2.70;71.20;;;;;;20983493;28;20075;-48
2022/01/29 07:23:38;;;;;;;0.40;0.20;;;-2.60;71.40;;;;;;20982368;28;20472;-48
2022/01/29 07:33:40;;;;;;;2.72;0.77;;;-2.40;71.20;;;;;;20992314;28;20037;-47
2022/01/29 07:43:44;;;;;;;0.35;0.10;;;-2.20;70.70;;;;;;20979829;28;20037;-49
2022/01/29 07:53:46;;;;;;;0.52;0.13;;;-1.90;71.10;;;;;;20995423;28;20100;-48
2022/01/29 08:03:50;;;;;;;1.98;0.40;;;-1.20;69.00;;;;;;20978534;28;20032;-49
2022/01/29 08:13:53;;;;;;;1.73;0.38;;;-0.20;66.30;;;;;;20977445;28;20118;-48
2022/01/29 08:23:55;;;;;;;1.77;0.65;;;0.80;64.50;;;;;;20993210;28;20086;-51
2022/01/29 08:33:58;;;;;;;2.85;0.98;;;1.70;61.10;;;;;;20992492;28;20040;-52
2022/01/29 08:44:01;;;;;;;1.73;0.63;;;2.60;58.80;;;;;;20990531;28;20423;-50
2022/01/29 08:54:03;;;;;;;2.90;1.02;;;3.30;57.10;;;;;;20990905;28;20533;-50
2022/01/29 09:04:06;;;;;;;2.28;1.00;;;4.00;56.90;;;;;;20973657;28;20036;-49
2022/01/29 09:14:08;;;;;;;6.50;1.08;;;4.50;54.50;;;;;;20981269;28;20567;-48
2022/01/29 09:24:11;;;;;;;2.38;1.02;;;4.90;54.30;;;;;;20971885;28;20036;-50
2022/01/29 09:34:13;;;;;;;6.25;1.52;;;5.30;53.70;;;;;;20987047;28;20071;-51
2022/01/29 09:44:17;;;;;;;3.25;1.50;;;5.60;53.30;;;;;;20987008;28;20522;-54
2022/01/29 09:54:19;;;;;;;3.53;1.42;;;5.80;52.30;;;;;;20968839;28;20078;-51
2022/01/29 10:04:24;;;;;;;3.72;1.25;;;6.10;53.40;;;;;;20968387;28;20036;-52
2022/01/29 10:14:26;;;;;;;6.00;1.77;;;6.40;52.70;;;;;;20985148;28;20044;-49
2022/01/29 10:24:29;;;;;;;4.45;1.92;;;6.50;53.60;;;;;;20968000;28;20028;-50
2022/01/29 10:34:34;;;;;;;3.90;2.00;;;6.90;53.10;;;;;;20983174;28;20090;-49
2022/01/29 10:44:48;;;;;;;7.30;2.67;;;6.90;52.70;;;;;;20966223;28;20040;-52
2022/01/29 10:55:13;;;;;;;5.70;2.15;;;7.30;51.90;;;;;;20982411;28;20094;-50
2022/01/29 11:05:17;;;;;;;6.47;2.40;;;7.60;52.30;;;;;;20989148;28;20040;-49
2022/01/29 11:15:22;;;;;;;6.10;2.85;;;7.60;55.50;;;;;;20972842;28;20044;-50
2022/01/29 11:25:31;;;;;;;6.60;2.35;;;8.00;53.90;;;;;;20914953;28;20477;-54
2022/01/29 11:35:53;;;;;;;7.10;3.10;;;8.40;53.90;;;;;;20929401;28;20086;-49
2022/01/29 11:46:04;;;;;;;5.63;2.50;;;8.40;54.50;;;;;;20914157;28;20029;-49
2022/01/29 11:56:24;;;;;;;;;;;8.80;52.80;;;;;;20929950;28;20045;-53
2022/01/29 12:06:30;;;;;;;7.82;3.28;;;8.70;54.90;;;;;;20820557;28;20443;-49
2022/01/29 12:16:56;;;;;;;8.20;3.22;;;8.70;54.20;;;;;;20803198;28;20103;-51
2022/01/29 12:26:58;;;;;;;7.47;3.28;;;8.70;54.10;;;;;;20728387;28;20050;-51
2022/01/29 12:37:12;;;;;;;7.60;2.90;;;8.50;54.00;;;;;;20738715;28;20041;-54
2022/01/29 12:47:31;;;;;;;8.32;3.33;;;8.20;54.70;;;;;;20810331;28;20033;-51
2022/01/29 12:57:49;;;;;;;8.23;3.63;;;7.90;56.10;;;;;;20654218;28;20399;-49
2022/01/29 13:07:52;;;;;;;10.25;4.20;;;8.10;56.30;;;;;;20637677;28;20363;-51
2022/01/29 13:17:54;;;;;;;10.35;4.15;;;7.90;57.20;;;;;;20698681;28;20099;-51
2022/01/29 13:28:09;;;;;;;13.25;4.68;;;7.80;57.50;;;;;;20731739;28;20068;-53
2022/01/29 13:38:15;;;;;;;10.07;4.32;;;6.90;61.10;;;;;;20805541;28;20045;-50
2022/01/29 13:48:20;;;;;;;12.13;4.95;;;6.60;60.10;;;;;;20805634;28;20037;-49
2022/01/29 13:58:24;;;;;;;11.57;5.65;;;6.00;64.40;;;;;;20730417;28;20046;-50
2022/01/29 14:08:28;;;;;;;14.65;5.70;;;5.80;64.80;;;;;;20713131;28;20096;-50
2022/01/29 14:18:34;;;;;;;14.95;6.25;;;5.20;66.50;;;;;;20713141;28;20405;-49
2022/01/29 14:28:36;;;;;;;14.82;6.20;;;4.90;68.60;;;;;;20713021;28;20120;-49
2022/01/29 14:38:39;;;;;;;18.77;6.55;;;4.70;69.70;;;;;;20760514;28;20045;-50
2022/01/29 14:48:42;;;;;;;14.80;6.70;;;4.50;70.20;;;;;;20819247;28;20407;-53
2022/01/29 14:58:45;;;;;;;33.15;7.72;;;4.20;72.00;;;;;;20800876;28;20033;-52
2022/01/29 15:08:49;;;;;;;18.92;7.35;;;3.90;72.50;;;;;;20817491;28;20104;-49
2022/01/29 15:18:52;;;;;;;17.05;7.45;;;3.70;73.60;;;;;;20871712;28;20115;-50
2022/01/29 15:28:54;;;;;;;22.50;8.95;;;3.50;73.80;;;;;;20882519;28;20037;-55
2022/01/29 15:38:57;;;;;;;19.45;7.03;;;3.00;75.40;;;;;;20898778;28;20087;-49
2022/01/29 15:49:00;;;;;;;17.73;6.93;;;2.20;77.50;;;;;;20902053;28;20071;-49
2022/01/29 15:59:04;;;;;;;20.58;7.10;;;1.70;79.10;;;;;;20928994;28;20037;-49
2022/01/29 16:09:09;;;;;;;16.90;6.20;;;1.10;80.30;;;;;;20863298;28;20048;-48
2022/01/29 16:19:11;;;;;;;17.33;7.57;;;0.80;81.80;;;;;;20927053;28;20380;-49
2022/01/29 16:29:14;;;;;;;15.77;6.15;;;0.60;81.90;;;;;;20909852;28;20036;-49
2022/01/29 16:39:16;;;;;;;15.65;6.53;;;0.40;83.60;;;;;;20926121;28;20056;-61
2022/01/29 16:49:20;;;;;;;12.48;5.35;;;0.20;84.10;;;;;;20891658;28;20554;-61
2022/01/29 16:59:22;;;;;;;16.35;6.82;;;-0.10;84.70;;;;;;20984227;28;20093;-62
2022/01/29 17:09:25;;;;;;;12.15;5.40;;;0.00;82.10;;;;;;20973663;28;20469;-58
2022/01/29 17:19:28;;;;;;;16.80;6.30;;;0.10;82.60;;;;;;20988563;28;20126;-54
2022/01/29 17:29:30;;;;;;;13.55;4.20;;;-0.20;82.00;;;;;;20976883;28;20045;-57
2022/01/29 17:39:33;;;;;;;12.65;4.43;;;-0.50;82.70;;;;;;21005123;28;20070;-57
2022/01/29 17:49:36;;;;;;;12.02;4.00;;;-0.70;82.90;;;;;;20968783;28;20024;-61
2022/01/29 17:59:39;;;;;;;14.45;3.55;;;-0.60;83.20;;;;;;20976557;28;20477;-59
2022/01/29 18:09:44;;;;;;;8.20;3.65;;;-0.60;81.20;;;;;;20980045;28;20052;-59
2022/01/29 18:19:46;;;;;;;8.82;4.15;;;-0.70;81.50;;;;;;20966385;28;20053;-52
2022/01/29 18:29:49;;;;;;;16.80;5.38;;;-0.70;81.80;;;;;;20980984;28;20372;-61
2022/01/29 18:40:09;;;;;;;11.85;4.15;;;-0.60;83.00;;;;;;20979626;28;20033;-63
2022/01/29 18:50:13;;;;;;;8.50;3.15;;;-0.70;82.30;;;;;;20976664;28;20028;-63
2022/01/29 19:00:17;;;;;;;8.77;3.72;;;-0.80;82.90;;;;;;20963971;28;20101;-64
2022/01/29 19:10:22;;;;;;;9.13;3.10;;;-1.00;82.30;;;;;;20979239;28;20032;-63
2022/01/29 19:20:26;;;;;;;7.38;2.60;;;-0.90;81.20;;;;;;20962283;28;20517;-63
2022/01/29 19:30:29;;;;;;;8.77;3.15;;;-0.90;79.80;;;;;;20975665;28;20033;-63
2022/01/29 19:40:32;;;;;;;8.63;3.00;;;-0.80;80.60;;;;;;20974388;28;20036;-63
2022/01/29 19:50:37;;;;;;;11.20;3.38;;;-1.10;81.10;;;;;;20976220;28;20037;-63
2022/01/29 20:00:40;;;;;;;7.35;3.15;;;-1.20;81.80;;;;;;20992472;28;20028;-63
2022/01/29 20:10:44;;;;;;;7.60;2.45;;;-1.10;80.90;;;;;;20991006;28;20040;-63
2022/01/29 20:20:47;;;;;;;6.43;2.22;;;-0.80;79.40;;;;;;20895881;28;20057;-63
2022/01/29 20:30:50;;;;;;;5.72;2.10;;;-0.80;79.30;;;;;;20883459;28;20033;-63
2022/01/29 20:40:53;;;;;;;2.97;1.25;;;-0.60;78.20;;;;;;20878190;28;20045;-64
2022/01/29 20:50:55;;;;;;;2.58;1.38;;;-0.60;76.20;;;;;;20825743;28;20088;-58
2022/01/29 21:00:59;;;;;;;4.68;1.50;;;-0.60;77.30;;;;;;20894522;28;20041;-56
2022/01/29 21:11:02;;;;;;;1.15;0.52;;;-0.60;76.60;;;;;;20839358;28;20041;-53
2022/01/29 21:21:05;;;;;;;2.63;0.90;;;-0.50;74.00;;;;;;20877953;28;20053;-52
2022/01/29 21:31:07;;;;;;;1.60;0.73;;;0.10;73.60;;;;;;20917235;28;20473;-52
2022/01/29 21:41:10;;;;;;;1.10;0.50;;;0.80;70.00;;;;;;20909829;28;20037;-53
2022/01/29 21:51:22;;;;;;;2.00;0.77;;;0.90;70.20;;;;;;20906506;28;20118;-52
2022/01/29 22:01:24;;;;;;;1.98;0.38;;;0.70;70.80;;;;;;20901504;28;20099;-52
2022/01/29 22:11:28;;;;;;;0.65;0.30;;;1.00;68.80;;;;;;20920014;28;20098;-54
2022/01/29 22:21:31;;;;;;;0.95;0.35;;;1.70;69.40;;;;;;20917006;28;20087;-56
2022/01/29 22:31:33;;;;;;;0.88;0.20;;;1.40;70.00;;;;;;20804345;28;20037;-61
2022/01/29 22:41:37;;;;;;;0.93;0.17;;;2.10;65.00;;;;;;20866469;28;20033;-58
2022/01/29 22:51:40;;;;;;;0.68;0.20;;;3.00;62.50;;;;;;20915545;28;20066;-50
2022/01/29 23:01:43;;;;;;;0.73;0.10;;;2.80;64.80;;;;;;20881575;28;20036;-47
2022/01/29 23:11:47;;;;;;;0.30;0.10;;;2.30;66.10;;;;;;20898989;28;20063;-49
2022/01/29 23:22:03;;;;;;;0.43;0.10;;;2.10;68.60;;;;;;20900204;28;20045;-49
2022/01/29 23:32:11;;;;;;;0.65;0.20;;;1.90;66.20;;;;;;20898347;28;20388;-48
2022/01/29 23:52:16;;;;;;;0.77;0.30;;;1.60;68.00;;;;;;20881043;28;20033;-49
